createdAt,value
2019-05-20T00:01:14.452Z,9.93
2019-05-20T00:03:43.816Z,9.47
2019-05-20T00:06:13.262Z,10.00
2019-05-20T00:08:42.603Z,9.70
2019-05-20T00:11:12.009Z,9.63
2019-05-20T00:13:41.462Z,10.43
2019-05-20T00:16:10.942Z,10.70
2019-05-20T00:18:40.374Z,11.40
2019-05-20T00:21:10.208Z,10.97
2019-05-20T00:23:39.658Z,10.20
2019-05-20T00:26:09.014Z,10.77
2019-05-20T00:28:38.432Z,11.37
2019-05-20T00:31:07.817Z,11.47
2019-05-20T00:33:37.276Z,11.97
2019-05-20T00:36:06.641Z,11.70
2019-05-20T00:38:36.088Z,11.77
2019-05-20T00:41:05.450Z,11.20
2019-05-20T00:43:34.866Z,11.67
2019-05-20T00:46:04.326Z,11.47
2019-05-20T00:48:33.756Z,11.83
2019-05-20T00:51:03.122Z,11.43
2019-05-20T00:53:32.550Z,12.27
2019-05-20T00:56:01.855Z,11.90
2019-05-20T00:58:31.186Z,11.60
2019-05-20T01:01:00.556Z,11.93
2019-05-20T01:03:29.928Z,13.00
2019-05-20T01:05:59.364Z,13.03
2019-05-20T01:08:28.772Z,11.97
2019-05-20T01:10:58.248Z,11.60
2019-05-20T01:13:27.641Z,12.47
2019-05-20T01:15:57.069Z,12.23
2019-05-20T01:18:26.475Z,12.37
2019-05-20T01:20:56.717Z,13.20
2019-05-20T01:23:26.195Z,12.00
2019-05-20T01:25:55.650Z,12.03
2019-05-20T01:28:25.038Z,13.23
2019-05-20T01:30:54.423Z,12.30
2019-05-20T01:33:23.889Z,13.23
2019-05-20T01:35:53.343Z,12.57
2019-05-20T01:38:22.711Z,13.93
2019-05-20T01:40:52.025Z,13.20
2019-05-20T01:43:21.407Z,13.37
2019-05-20T01:45:50.759Z,13.30
2019-05-20T01:48:20.161Z,13.37
2019-05-20T01:50:49.585Z,14.33
2019-05-20T01:53:19.068Z,13.87
2019-05-20T01:55:48.493Z,13.30
2019-05-20T01:58:17.829Z,13.83
2019-05-20T02:00:47.229Z,13.83
2019-05-20T02:03:30.437Z,14.00
2019-05-20T02:05:47.679Z,13.67
2019-05-20T02:08:17.121Z,13.23
2019-05-20T02:10:46.457Z,14.20
2019-05-20T02:13:15.865Z,13.83
2019-05-20T02:15:51.555Z,12.70
2019-05-20T02:18:20.962Z,12.90
2019-05-20T02:20:50.408Z,13.27
2019-05-20T02:23:19.837Z,13.43
2019-05-20T02:25:51.255Z,13.67
2019-05-20T02:28:20.660Z,12.77
2019-05-20T02:30:50.077Z,13.13
2019-05-20T02:33:19.459Z,14.67
2019-05-20T02:35:48.916Z,13.70
2019-05-20T02:38:18.242Z,13.57
2019-05-20T02:40:47.740Z,14.27
2019-05-20T02:43:17.083Z,13.00
2019-05-20T02:45:46.418Z,14.50
2019-05-20T02:48:15.892Z,14.50
2019-05-20T02:50:45.304Z,14.80
2019-05-20T02:53:14.744Z,14.63
2019-05-20T02:55:44.387Z,13.60
2019-05-20T02:58:13.790Z,14.43
2019-05-20T03:00:43.250Z,14.77
2019-05-20T03:03:12.636Z,13.53
2019-05-20T03:05:42.084Z,14.77
2019-05-20T03:08:11.462Z,14.70
2019-05-20T03:10:40.818Z,14.40
2019-05-20T03:13:10.237Z,14.67
2019-05-20T03:15:39.642Z,14.13
2019-05-20T03:18:08.992Z,13.47
2019-05-20T03:20:38.343Z,13.33
2019-05-20T03:23:07.754Z,14.10
2019-05-20T03:25:37.203Z,13.43
2019-05-20T03:28:06.523Z,14.13
2019-05-20T03:30:35.894Z,14.20
2019-05-20T03:33:05.273Z,14.27
2019-05-20T03:35:34.695Z,13.37
2019-05-20T03:38:04.126Z,13.17
2019-05-20T03:40:33.550Z,13.83
2019-05-20T03:43:02.984Z,13.37
2019-05-20T03:45:32.408Z,13.17
2019-05-20T03:48:01.781Z,13.43
2019-05-20T03:50:31.284Z,13.40
2019-05-20T03:53:00.668Z,12.87
2019-05-20T03:55:30.050Z,13.90
2019-05-20T03:57:59.468Z,13.23
2019-05-20T04:00:57.018Z,12.97
2019-05-20T04:03:26.412Z,13.17
2019-05-20T04:05:55.843Z,12.57
2019-05-20T04:08:25.221Z,13.30
2019-05-20T04:10:54.797Z,12.50
2019-05-20T04:13:24.191Z,12.73
2019-05-20T04:15:53.606Z,11.07
2019-05-20T04:18:22.981Z,12.77
2019-05-20T04:20:52.442Z,11.60
2019-05-20T04:23:22.050Z,12.00
2019-05-20T04:25:51.463Z,11.57
2019-05-20T04:28:20.903Z,11.93
2019-05-20T04:30:50.381Z,11.33
2019-05-20T04:33:19.808Z,11.07
2019-05-20T04:35:50.005Z,10.17
2019-05-20T04:38:19.423Z,11.20
2019-05-20T04:40:48.808Z,10.80
2019-05-20T04:43:18.277Z,10.87
2019-05-20T04:45:47.713Z,11.67
2019-05-20T04:48:17.152Z,10.83
2019-05-20T04:50:46.490Z,10.53
2019-05-20T04:53:15.955Z,11.67
2019-05-20T04:55:45.675Z,10.50
2019-05-20T04:58:15.167Z,11.13
2019-05-20T05:00:55.364Z,10.17
2019-05-20T05:03:24.855Z,11.07
2019-05-20T05:05:54.479Z,10.30
2019-05-20T05:08:24.061Z,10.40
2019-05-20T05:10:53.643Z,10.40
2019-05-20T05:13:23.796Z,10.10
2019-05-20T05:15:53.273Z,10.80
2019-05-20T05:18:23.011Z,10.97
2019-05-20T05:20:52.521Z,10.83
2019-05-20T05:23:22.446Z,11.27
2019-05-20T05:25:51.746Z,11.47
2019-05-20T05:28:21.178Z,10.77
2019-05-20T05:30:50.654Z,10.70
2019-05-20T05:33:19.998Z,10.90
2019-05-20T05:35:53.210Z,10.13
2019-05-20T05:38:20.581Z,10.73
2019-05-20T05:40:49.918Z,11.07
2019-05-20T05:43:19.303Z,11.27
2019-05-20T05:45:48.775Z,10.63
2019-05-20T05:48:18.187Z,10.73
2019-05-20T05:50:47.559Z,10.33
2019-05-20T05:53:16.975Z,11.60
2019-05-20T05:55:46.377Z,11.87
2019-05-20T05:58:15.754Z,10.93
2019-05-20T06:00:45.153Z,10.93
2019-05-20T06:03:14.537Z,10.63
2019-05-20T06:05:43.871Z,12.13
2019-05-20T06:08:13.324Z,11.37
2019-05-20T06:10:42.661Z,10.90
2019-05-20T06:13:12.085Z,11.63
2019-05-20T06:15:41.475Z,11.47
2019-05-20T06:18:10.871Z,11.57
2019-05-20T06:20:40.234Z,11.87
2019-05-20T06:23:09.719Z,11.33
2019-05-20T06:25:39.162Z,11.03
2019-05-20T06:28:08.542Z,11.73
2019-05-20T06:30:40.404Z,11.03
2019-05-20T06:33:09.831Z,13.03
2019-05-20T06:35:39.225Z,11.57
2019-05-20T06:38:12.676Z,11.63
2019-05-20T06:40:42.111Z,11.73
2019-05-20T06:43:11.506Z,11.70
2019-05-20T06:45:40.808Z,11.87
2019-05-20T06:48:10.129Z,12.50
2019-05-20T06:50:39.481Z,11.40
2019-05-20T06:53:08.881Z,11.67
2019-05-20T06:55:38.189Z,11.63
2019-05-20T06:58:07.510Z,13.30
2019-05-20T07:00:38.597Z,11.97
2019-05-20T07:03:08.215Z,12.43
2019-05-20T07:05:37.613Z,13.57
2019-05-20T07:08:06.958Z,12.10
2019-05-20T07:10:36.313Z,12.20
2019-05-20T07:13:05.712Z,12.10
2019-05-20T07:15:35.073Z,13.57
2019-05-20T07:18:04.636Z,12.73
2019-05-20T07:20:34.015Z,12.20
2019-05-20T07:23:03.449Z,13.10
2019-05-20T07:25:32.836Z,13.30
2019-05-20T07:28:02.194Z,13.77
2019-05-20T07:30:31.722Z,14.37
2019-05-20T07:33:01.232Z,13.27
2019-05-20T07:35:31.226Z,13.43
2019-05-20T07:38:00.880Z,13.90
2019-05-20T07:40:34.279Z,12.20
2019-05-20T07:43:04.514Z,13.87
2019-05-20T07:45:36.162Z,12.53
2019-05-20T07:48:06.658Z,13.50
2019-05-20T07:50:39.709Z,13.40
2019-05-20T07:53:11.712Z,12.40
2019-05-20T07:55:47.397Z,12.90
2019-05-20T07:58:19.254Z,13.40
2019-05-20T08:00:48.764Z,13.97
2019-05-20T08:03:18.160Z,13.37
2019-05-20T08:05:47.516Z,13.47
2019-05-20T08:08:16.879Z,13.10
2019-05-20T08:10:46.481Z,13.80
2019-05-20T08:13:15.861Z,13.63
2019-05-20T08:15:45.228Z,14.40
2019-05-20T08:18:14.630Z,14.17
2019-05-20T08:20:44.102Z,15.03
2019-05-20T08:23:13.638Z,15.50
2019-05-20T08:25:43.085Z,14.27
2019-05-20T08:28:12.564Z,14.50
2019-05-20T08:30:41.938Z,14.80
2019-05-20T08:33:11.320Z,15.47
2019-05-20T08:35:40.697Z,15.40
2019-05-20T08:38:10.132Z,16.17
2019-05-20T08:40:39.472Z,15.13
2019-05-20T08:43:08.806Z,16.53
2019-05-20T08:45:38.206Z,15.50
2019-05-20T08:48:07.606Z,16.20
2019-05-20T08:50:36.970Z,17.13
2019-05-20T08:53:06.227Z,17.10
2019-05-20T08:55:35.736Z,16.77
2019-05-20T08:58:05.159Z,16.10
2019-05-20T09:00:34.574Z,17.53
2019-05-20T09:03:03.903Z,17.77
2019-05-20T09:05:33.380Z,17.93
2019-05-20T09:08:04.130Z,18.00
2019-05-20T09:10:33.640Z,17.73
2019-05-20T09:13:02.979Z,18.50
2019-05-20T09:15:32.590Z,19.20
2019-05-20T09:18:02.274Z,19.07
2019-05-20T09:20:31.664Z,19.77
2019-05-20T09:23:02.801Z,18.73
2019-05-20T09:25:33.078Z,19.27
2019-05-20T09:28:02.631Z,19.10
2019-05-20T09:30:32.074Z,19.17
2019-05-20T09:33:01.511Z,19.60
2019-05-20T09:35:30.958Z,18.87
2019-05-20T09:38:00.437Z,18.93
2019-05-20T09:40:40.853Z,20.27
2019-05-20T09:43:10.383Z,19.60
2019-05-20T09:45:39.747Z,19.77
2019-05-20T09:48:09.586Z,18.40
2019-05-20T09:50:39.328Z,17.87
2019-05-20T09:53:09.167Z,18.70
2019-05-20T09:55:38.597Z,17.90
2019-05-20T09:58:08.215Z,18.50
2019-05-20T10:00:37.677Z,18.00
2019-05-20T10:03:07.757Z,18.60
2019-05-20T10:05:37.895Z,18.30
2019-05-20T10:08:07.660Z,17.43
2019-05-20T10:10:37.473Z,18.57
2019-05-20T10:13:07.996Z,16.80
2019-05-20T10:15:37.825Z,17.87
2019-05-20T10:18:07.164Z,17.73
2019-05-20T10:20:36.549Z,18.17
2019-05-20T10:23:05.952Z,17.27
2019-05-20T10:25:35.382Z,18.03
2019-05-20T10:28:04.785Z,18.10
2019-05-20T10:30:35.077Z,18.43
2019-05-20T10:33:09.314Z,18.57
2019-05-20T10:35:35.728Z,18.70
2019-05-20T10:38:05.490Z,18.63
2019-05-20T10:40:34.928Z,19.70
2019-05-20T10:43:04.432Z,18.87
2019-05-20T10:45:34.665Z,18.57
2019-05-20T10:48:05.313Z,19.97
2019-05-20T10:50:35.136Z,20.20
2019-05-20T10:53:04.632Z,19.50
2019-05-20T10:55:34.050Z,19.40
2019-05-20T10:58:03.428Z,19.93
2019-05-20T11:00:32.883Z,19.77
2019-05-20T11:03:02.407Z,20.63
2019-05-20T11:05:32.100Z,20.10
2019-05-20T11:08:01.452Z,19.53
2019-05-20T11:10:30.932Z,19.77
2019-05-20T11:13:00.653Z,20.40
2019-05-20T11:15:29.982Z,19.70
2019-05-20T11:17:59.380Z,22.13
2019-05-20T11:20:28.768Z,20.40
2019-05-20T11:23:00.997Z,20.90
2019-05-20T11:25:29.202Z,19.87
2019-05-20T11:27:58.575Z,20.83
2019-05-20T11:30:28.048Z,19.53
2019-05-20T11:32:57.427Z,19.57
2019-05-20T11:35:26.786Z,21.00
2019-05-20T11:37:56.170Z,20.43
2019-05-20T11:40:25.592Z,20.97
2019-05-20T11:42:54.966Z,20.67
2019-05-20T11:45:24.382Z,20.37
2019-05-20T11:47:53.805Z,21.47
2019-05-20T11:50:23.225Z,22.03
2019-05-20T11:52:52.711Z,21.40
2019-05-20T11:55:22.163Z,20.83
2019-05-20T11:57:51.558Z,21.03
2019-05-20T12:00:21.043Z,21.27
2019-05-20T12:02:51.251Z,21.30
2019-05-20T12:05:20.703Z,21.10
2019-05-20T12:07:50.176Z,21.17
2019-05-20T12:10:19.772Z,21.17
2019-05-20T12:12:49.156Z,21.27
2019-05-20T12:15:18.972Z,21.47
2019-05-20T12:17:48.407Z,20.70
2019-05-20T12:20:18.192Z,21.07
2019-05-20T12:22:47.512Z,22.17
2019-05-20T12:25:17.015Z,22.50
2019-05-20T12:27:46.310Z,22.73
2019-05-20T12:30:16.464Z,21.20
2019-05-20T12:32:45.859Z,23.23
2019-05-20T12:35:15.468Z,22.13
2019-05-20T12:37:45.796Z,21.53
2019-05-20T12:40:15.587Z,21.63
2019-05-20T12:42:44.953Z,21.60
2019-05-20T12:45:14.378Z,22.00
2019-05-20T12:47:43.803Z,21.90
2019-05-20T12:50:13.655Z,23.30
2019-05-20T12:52:43.090Z,22.20
2019-05-20T12:55:12.660Z,22.23
2019-05-20T12:57:42.083Z,23.63
2019-05-20T13:00:12.517Z,24.20
2019-05-20T13:02:42.082Z,27.13
2019-05-20T13:05:12.139Z,17.90
2019-05-20T13:07:41.648Z,16.77
2019-05-20T13:10:27.877Z,15.10
2019-05-20T13:12:43.995Z,15.67
2019-05-20T13:15:13.843Z,18.87
2019-05-20T13:17:45.050Z,19.83
2019-05-20T13:20:14.424Z,22.70
2019-05-20T13:22:43.778Z,23.33
2019-05-20T13:25:13.326Z,23.80
2019-05-20T13:27:42.723Z,23.13
2019-05-20T13:30:12.516Z,18.73
2019-05-20T13:32:41.901Z,20.17
2019-05-20T13:35:11.680Z,19.93
2019-05-20T13:37:41.174Z,18.30
2019-05-20T13:40:10.787Z,20.10
2019-05-20T13:42:40.208Z,18.67
2019-05-20T13:45:10.214Z,18.77
2019-05-20T13:47:39.641Z,16.90
2019-05-20T13:50:10.868Z,16.60
2019-05-20T13:52:40.205Z,14.87
2019-05-20T13:55:10.076Z,12.73
2019-05-20T13:57:39.571Z,12.63
2019-05-20T14:00:09.764Z,11.20
2019-05-20T14:02:39.165Z,10.27
2019-05-20T14:05:08.679Z,10.10
2019-05-20T14:07:38.093Z,11.60
2019-05-20T14:10:07.966Z,9.93
2019-05-20T14:12:37.348Z,10.43
2019-05-20T14:15:07.123Z,11.97
2019-05-20T14:17:36.478Z,10.87
2019-05-20T14:20:06.477Z,12.63
2019-05-20T14:22:35.851Z,13.07
2019-05-20T14:25:05.566Z,13.57
2019-05-20T14:27:34.997Z,13.97
2019-05-20T14:30:04.930Z,13.60
2019-05-20T14:32:34.362Z,12.80
2019-05-20T14:35:03.862Z,13.70
2019-05-20T14:37:33.276Z,15.33
2019-05-20T14:40:02.726Z,16.93
2019-05-20T14:42:32.182Z,14.40
2019-05-20T14:45:01.592Z,17.60
2019-05-20T14:47:31.143Z,15.00
2019-05-20T14:50:00.663Z,17.33
2019-05-20T14:52:30.200Z,30.80
2019-05-20T14:54:59.761Z,14.50
2019-05-20T14:57:29.242Z,14.77
2019-05-20T14:59:58.578Z,14.43
2019-05-20T15:02:30.900Z,32.03
2019-05-20T15:04:59.261Z,11.07
2019-05-20T15:07:31.458Z,11.30
2019-05-20T15:10:01.013Z,14.73
2019-05-20T15:12:30.400Z,16.87
2019-05-20T15:15:00.009Z,11.90
2019-05-20T15:17:29.529Z,18.20
2019-05-20T15:19:59.053Z,15.90
2019-05-20T15:22:28.706Z,14.20
2019-05-20T15:24:58.128Z,16.97
2019-05-20T15:27:28.191Z,37.03
2019-05-20T15:29:57.656Z,12.53
2019-05-20T15:32:27.074Z,13.17
2019-05-20T15:34:56.601Z,38.67
2019-05-20T15:37:26.066Z,15.10
2019-05-20T15:39:55.669Z,14.77
2019-05-20T15:42:25.066Z,14.00
2019-05-20T15:44:54.634Z,15.70
2019-05-20T15:47:24.038Z,17.83
2019-05-20T15:49:53.581Z,17.43
2019-05-20T15:52:22.987Z,17.87
2019-05-20T15:54:52.456Z,18.47
2019-05-20T15:57:22.019Z,21.07
2019-05-20T15:59:51.432Z,28.80
2019-05-20T16:02:23.494Z,23.77
2019-05-20T16:04:53.644Z,23.33
2019-05-20T16:07:23.804Z,21.73
2019-05-20T16:09:53.336Z,22.43
2019-05-20T16:12:22.803Z,22.27
2019-05-20T16:14:52.285Z,22.43
2019-05-20T16:17:21.680Z,91.73
2019-05-20T16:19:51.090Z,76.67
2019-05-20T16:22:20.484Z,92.73
2019-05-20T16:24:50.322Z,30.30
2019-05-20T16:27:19.844Z,44.73
2019-05-20T16:30:05.441Z,59.90
2019-05-20T16:32:20.588Z,34.20
2019-05-20T16:34:50.079Z,41.80
2019-05-20T16:37:19.511Z,18.03
2019-05-20T16:39:48.993Z,16.53
2019-05-20T16:42:18.525Z,17.93
2019-05-20T16:44:47.906Z,41.77
2019-05-20T16:47:17.354Z,25.77
2019-05-20T16:49:46.818Z,16.37
2019-05-20T16:52:16.307Z,18.50
2019-05-20T16:54:45.723Z,32.03
2019-05-20T16:57:15.140Z,22.23
2019-05-20T16:59:44.469Z,24.37
2019-05-20T17:02:13.976Z,21.57
2019-05-20T17:04:43.376Z,19.00
2019-05-20T17:07:12.856Z,17.20
2019-05-20T17:09:42.212Z,16.00
2019-05-20T17:12:11.734Z,19.37
2019-05-20T17:14:41.130Z,16.67
2019-05-20T17:17:10.576Z,15.30
2019-05-20T17:19:39.981Z,41.67
2019-05-20T17:22:09.510Z,17.23
2019-05-20T17:24:39.126Z,24.47
2019-05-20T17:27:08.653Z,21.23
2019-05-20T17:29:38.195Z,20.07
2019-05-20T17:32:07.707Z,19.87
2019-05-20T17:34:37.232Z,18.93
2019-05-20T17:37:06.651Z,19.53
2019-05-20T17:39:36.305Z,19.23
2019-05-20T17:42:05.838Z,19.20
2019-05-20T17:44:35.354Z,21.03
2019-05-20T17:47:05.121Z,20.83
2019-05-20T17:49:34.553Z,21.70
2019-05-20T17:52:03.991Z,22.07
2019-05-20T17:54:33.498Z,21.53
2019-05-20T17:57:03.079Z,23.07
2019-05-20T17:59:32.577Z,22.87
2019-05-20T18:02:01.929Z,26.73
2019-05-20T18:04:31.436Z,31.03
2019-05-20T18:07:00.979Z,46.60
2019-05-20T18:09:31.988Z,26.87
2019-05-20T18:12:06.246Z,27.85
2019-05-20T18:14:35.686Z,81.63
2019-05-20T18:17:05.149Z,28.67
2019-05-20T18:19:34.540Z,30.57
2019-05-20T18:22:04.289Z,23.50
2019-05-20T18:24:33.656Z,19.80
2019-05-20T18:27:03.498Z,22.80
2019-05-20T18:29:32.952Z,20.77
2019-05-20T18:32:02.425Z,18.03
2019-05-20T18:34:31.911Z,16.93
2019-05-20T18:37:01.319Z,19.13
2019-05-20T18:39:30.731Z,19.33
2019-05-20T18:42:00.224Z,12.87
2019-05-20T18:44:29.698Z,11.97
2019-05-20T18:46:59.149Z,9.97
2019-05-20T18:49:28.544Z,10.10
2019-05-20T18:51:58.016Z,7.07
2019-05-20T18:54:27.434Z,9.53
2019-05-20T18:56:56.910Z,7.00
2019-05-20T18:59:26.309Z,5.83
2019-05-20T19:02:04.688Z,5.50
2019-05-20T19:04:26.851Z,9.37
2019-05-20T19:06:56.415Z,5.97
2019-05-20T19:09:25.917Z,6.47
2019-05-20T19:11:55.392Z,11.13
2019-05-20T19:14:25.690Z,6.67
2019-05-20T19:16:55.143Z,6.40
2019-05-20T19:19:24.578Z,6.37
2019-05-20T19:21:54.001Z,7.00
2019-05-20T19:24:23.504Z,6.70
2019-05-20T19:26:52.995Z,6.53
2019-05-20T19:29:22.383Z,7.43
2019-05-20T19:32:01.431Z,6.87
2019-05-20T19:34:22.932Z,7.90
2019-05-20T19:36:52.257Z,8.00
2019-05-20T19:39:21.675Z,9.17
2019-05-20T19:41:51.005Z,7.77
2019-05-20T19:44:20.474Z,8.40
2019-05-20T19:46:49.817Z,9.30
2019-05-20T19:49:19.229Z,9.10
2019-05-20T19:51:48.585Z,10.17
2019-05-20T19:54:18.015Z,9.17
2019-05-20T19:56:47.340Z,8.30
2019-05-20T19:59:16.804Z,10.53
2019-05-20T20:01:46.266Z,8.03
2019-05-20T20:04:15.670Z,8.13
2019-05-20T20:06:45.104Z,7.77
2019-05-20T20:09:14.557Z,7.93
2019-05-20T20:11:44.019Z,7.53
2019-05-20T20:14:16.515Z,7.57
2019-05-20T20:16:46.061Z,6.77
2019-05-20T20:19:15.447Z,6.83
2019-05-20T20:21:44.885Z,6.83
2019-05-20T20:24:14.321Z,7.40
2019-05-20T20:26:43.657Z,7.40
2019-05-20T20:29:13.091Z,7.00
2019-05-20T20:31:42.589Z,8.10
2019-05-20T20:34:12.063Z,7.47
2019-05-20T20:36:41.577Z,7.10
2019-05-20T20:39:11.058Z,7.03
2019-05-20T20:41:40.570Z,7.13
2019-05-20T20:44:11.847Z,7.23
2019-05-20T20:46:41.302Z,7.50
2019-05-20T20:49:10.674Z,7.67
2019-05-20T20:51:40.099Z,7.23
2019-05-20T20:54:09.529Z,6.93
2019-05-20T20:56:38.969Z,7.03
2019-05-20T20:59:08.354Z,7.03
2019-05-20T21:01:37.884Z,7.20
2019-05-20T21:04:07.421Z,6.27
2019-05-20T21:06:36.881Z,6.17
2019-05-20T21:09:06.983Z,5.53
2019-05-20T21:11:36.511Z,6.30
2019-05-20T21:14:07.196Z,6.03
2019-05-20T21:16:36.651Z,5.83
2019-05-20T21:19:06.259Z,5.17
2019-05-20T21:21:35.614Z,6.07
2019-05-20T21:24:05.038Z,5.50
2019-05-20T21:26:34.479Z,5.47
2019-05-20T21:29:03.869Z,5.47
2019-05-20T21:31:33.336Z,5.83
2019-05-20T21:34:02.786Z,6.00
2019-05-20T21:36:46.609Z,5.93
2019-05-20T21:39:04.001Z,5.97
2019-05-20T21:41:33.498Z,5.97
2019-05-20T21:44:02.963Z,5.90
2019-05-20T21:46:32.436Z,5.67
2019-05-20T21:49:01.924Z,5.40
2019-05-20T21:51:31.400Z,5.40
2019-05-20T21:54:00.788Z,5.50
2019-05-20T21:56:30.266Z,5.60
2019-05-20T21:58:59.742Z,5.43
2019-05-20T22:01:29.141Z,5.53
2019-05-20T22:03:58.596Z,5.20
2019-05-20T22:06:27.961Z,5.30
2019-05-20T22:08:57.401Z,5.63
2019-05-20T22:11:26.841Z,6.23
2019-05-20T22:13:56.348Z,5.90
2019-05-20T22:16:29.578Z,6.80
2019-05-20T22:18:57.094Z,7.37
2019-05-20T22:21:30.467Z,6.90
2019-05-20T22:24:02.595Z,6.70
2019-05-20T22:26:32.114Z,7.63
2019-05-20T22:29:01.543Z,7.40
2019-05-20T22:31:30.936Z,8.33
2019-05-20T22:34:00.346Z,7.47
2019-05-20T22:36:29.817Z,7.27
2019-05-20T22:38:59.190Z,7.37
2019-05-20T22:41:28.600Z,8.30
2019-05-20T22:43:58.061Z,7.83
2019-05-20T22:46:27.516Z,7.93
2019-05-20T22:48:56.978Z,7.93
2019-05-20T22:51:26.360Z,7.83
2019-05-20T22:53:55.693Z,8.13
2019-05-20T22:56:25.099Z,8.50
2019-05-20T22:58:54.530Z,8.30
2019-05-20T23:01:23.986Z,9.27
2019-05-20T23:03:56.485Z,9.47
2019-05-20T23:06:24.533Z,9.70
2019-05-20T23:08:53.922Z,10.20
2019-05-20T23:11:23.366Z,10.00
2019-05-20T23:13:52.818Z,10.33
2019-05-20T23:16:22.183Z,10.70
2019-05-20T23:18:51.642Z,10.47
2019-05-20T23:21:21.028Z,10.60
2019-05-20T23:23:50.408Z,11.00
2019-05-20T23:26:19.888Z,10.87
2019-05-20T23:28:49.290Z,11.27
2019-05-20T23:31:18.612Z,12.27
2019-05-20T23:33:48.110Z,11.53
2019-05-20T23:36:17.492Z,11.43
2019-05-20T23:38:47.058Z,11.43
2019-05-20T23:41:16.520Z,12.63
2019-05-20T23:43:45.974Z,12.10
2019-05-20T23:46:15.310Z,11.97
2019-05-20T23:48:44.782Z,12.33
2019-05-20T23:51:14.220Z,13.07
2019-05-20T23:53:43.663Z,12.17
2019-05-20T23:56:13.032Z,12.50
2019-05-20T23:58:42.482Z,12.30
